الصفحة الرئيسية
METAR-TAF:

METAR-TAF

مطار :

مطار يميلانو الدولي

كراسنويارسك, روسيا

دائرة عرض: 56-10-18N, خط طول: 092-29-36E, ارتفاع: 287 متر

مراقبة الطقس الحالي

تاريخ ووقت الإصدار 21 دقيقة قبل الساعة 07:00UTC
ريح 8 عقدة من الشرق/الجنوب الشرقي
درجة الحرارة 29°درجة مئوية
الرطوبة 35%
ضغط 1005 hPa
الرؤية 10 كم أو أكثر
الغيوم لا تقل 1500 م ولا وجود لمزنة ركامية السحاب الأسود

METAR: UNKL 240700Z 11004MPS CAVOK 29/12 Q1005 R11/CLRD65 NOSIG RMK QFE729

زمن: 14:21 (07:21 UTC)

توقعات

تاريخ ووقت الإصدار 2ساعات و 25 دقيقة قبل الساعة 04:56UTC
التوقعات صالحة من24 الساعة 06 UTC إلى 25 الساعة 06 UTC
ريح 6 عقدة من الشرق تتزايد حتى 19 عقدة
الرؤية 10 كم أو أكثر
الغيوم لا تقل 1500 م ولا وجود لمزنة ركامية السحاب الأسود

TAF: UNKL 240456Z 2406/2506 10003G10MPS CAVOK

أرصاد الطقس والتوقعات من أكثر من 4000 مطار (تقارير الطقس للمطار METAR والتنبؤ بالطقس بالمطارTAF).

المحطات المتاحة هي النقط الصفراء والحمراء على الخريطة.

حرك المؤشر فوق النقطة لمعرفة اسم المحطة.

ثم انقر لمعرفة أرصاد وتوقعات الطقس.

لتغيير الخارطة: اضغط على الأزرار الخضراء مع رمز الصليب الأسود للتكبير. على الزر الأخضر مع شرطة للتصغير، أو على الأسهم الخضراء للخرائط المجاورة.


METAR-TAF: